Time;durP1;ratioP1;P1;durP2;ratioP2;P2;SDS_P1;SDS_P2;PMS_P1;PMS_P2;Temp;Humidity;BMP_temperature;BMP_pressure;BME280_temperature;BME280_humidity;BME280_pressure;Samples;Min_cycle;Max_cycle;Signal;HPM_P1;HPM_P2
2022/01/16 00:05:43;;;;;;;433.25;131.23;;;;;;;10.13;100.00;99244.97;5033009;28;20469;-68
2022/01/16 00:08:25;;;;;;;429.63;129.38;;;;;;;10.09;100.00;99242.47;5036249;28;20135;-67
2022/01/16 00:11:21;;;;;;;441.70;131.23;;;;;;;9.97;100.00;99233.28;5013802;28;20128;-68
2022/01/16 00:13:56;;;;;;;424.02;129.15;;;;;;;10.23;100.00;99250.81;5018725;28;20071;-67
2022/01/16 00:16:50;;;;;;;431.27;133.75;;;;;;;10.29;100.00;99255.88;5019963;28;20049;-67
2022/01/16 00:19:39;;;;;;;466.30;133.90;;;;;;;10.23;100.00;99256.81;5014184;28;20254;-67
2022/01/16 00:22:25;;;;;;;438.27;132.35;;;;;;;10.37;100.00;99273.75;5018543;28;20059;-67
2022/01/16 00:25:15;;;;;;;463.38;137.73;;;;;;;10.39;100.00;99261.66;5016703;28;20177;-67
2022/01/16 00:28:10;;;;;;;449.42;134.77;;;;;;;10.27;100.00;99263.63;5019362;28;20081;-68
2022/01/16 00:30:47;;;;;;;420.65;128.57;;;;;;;10.33;100.00;99260.91;5018532;28;20049;-67
2022/01/16 00:33:39;;;;;;;433.10;133.77;;;;;;;10.27;100.00;99255.88;5017031;28;20567;-67
2022/01/16 00:36:21;;;;;;;427.23;131.48;;;;;;;10.25;100.00;99259.34;5022567;28;20145;-68
2022/01/16 00:39:10;;;;;;;419.67;128.95;;;;;;;10.27;100.00;99258.47;5023389;28;20077;-67
2022/01/16 00:41:52;;;;;;;454.80;139.55;;;;;;;10.28;100.00;99265.31;5020249;28;20114;-67
2022/01/16 00:44:40;;;;;;;444.63;135.55;;;;;;;10.18;100.00;99266.34;5016447;28;20033;-68
2022/01/16 00:47:22;;;;;;;446.08;138.60;;;;;;;10.23;100.00;99277.41;5014886;28;20050;-68
2022/01/16 00:50:11;;;;;;;454.27;135.75;;;;;;;10.21;100.00;99284.34;5017135;28;20058;-68
2022/01/16 00:52:53;;;;;;;426.90;132.43;;;;;;;10.39;100.00;99288.25;5016155;28;20049;-68
2022/01/16 00:55:41;;;;;;;440.08;142.68;;;;;;;10.44;100.00;99298.50;5013487;28;20045;-68
2022/01/16 00:58:23;;;;;;;453.20;139.93;;;;;;;10.33;100.00;99294.38;5015562;28;20077;-67
2022/01/16 01:01:18;;;;;;;464.25;140.93;;;;;;;10.33;100.00;99289.22;5017543;28;20131;-68
2022/01/16 01:03:54;;;;;;;444.60;140.10;;;;;;;10.36;100.00;99288.34;5005016;28;20053;-67
2022/01/16 01:06:50;;;;;;;441.60;140.73;;;;;;;10.28;100.00;99288.50;5013545;28;20760;-67
2022/01/16 01:09:38;;;;;;;459.52;137.60;;;;;;;10.29;100.00;99295.34;5028520;28;20044;-68
2022/01/16 01:12:51;;;;;;;448.25;139.75;;;;;;;10.29;100.00;99303.06;5017275;28;20043;-68
2022/01/16 01:15:30;;;;;;;425.85;131.18;;;;;;;10.38;100.00;99316.66;5031667;28;20049;-67
2022/01/16 01:18:26;;;;;;;404.70;128.18;;;;;;;10.34;100.00;99310.69;5033140;28;20090;-68
2022/01/16 01:21:05;;;;;;;412.63;125.80;;;;;;;10.44;100.00;99312.22;5033785;28;20079;-68
2022/01/16 01:23:57;;;;;;;376.60;123.40;;;;;;;10.37;100.00;99299.50;5030357;28;20053;-67
2022/01/16 01:26:48;;;;;;;365.95;114.22;;;;;;;10.33;100.00;99296.13;5040578;28;20126;-67
2022/01/16 01:29:50;;;;;;;379.10;116.53;;;;;;;10.37;100.00;99294.34;5034348;28;20060;-67
2022/01/16 01:32:25;;;;;;;359.25;114.93;;;;;;;10.21;100.00;99294.63;5050596;28;20060;-68
2022/01/16 01:35:18;;;;;;;374.50;118.05;;;;;;;10.24;100.00;99297.13;5055122;28;20118;-68
2022/01/16 01:38:00;;;;;;;390.73;121.28;;;;;;;10.28;100.00;99311.66;5048876;28;20401;-68
2022/01/16 01:40:50;;;;;;;403.88;124.07;;;;;;;10.25;100.00;99316.00;5048909;28;20041;-68
2022/01/16 01:52:26;;;;;;;364.75;115.88;;;;;;;10.15;100.00;99346.19;5048412;28;20064;-67
2022/01/16 01:55:08;;;;;;;370.38;116.90;;;;;;;10.09;100.00;99341.16;5047183;28;20045;-68
2022/01/16 01:57:57;;;;;;;373.80;116.80;;;;;;;10.06;100.00;99332.63;5048822;28;20041;-68
2022/01/16 02:00:39;;;;;;;356.23;113.75;;;;;;;9.97;100.00;99347.38;5050595;28;20048;-68
2022/01/16 02:06:24;;;;;;;360.15;112.10;;;;;;;9.83;100.00;99354.44;5028528;28;20057;-67
2022/01/16 02:09:13;;;;;;;370.48;110.80;;;;;;;9.92;100.00;99361.16;5045048;28;20138;-67
2022/01/16 02:12:02;;;;;;;382.75;114.95;;;;;;;9.90;100.00;99355.19;5046986;28;20051;-68
2022/01/16 02:15:00;;;;;;;339.52;107.85;;;;;;;9.93;100.00;99378.31;5028448;28;20073;-68
2022/01/16 02:33:22;;;;;;;347.55;106.03;;;;;;;9.62;100.00;99389.97;5037844;28;20076;-67
2022/01/16 02:36:00;;;;;;;328.95;102.55;;;;;;;9.67;100.00;99373.56;5045607;28;20481;-68
2022/01/16 02:38:49;;;;;;;325.33;98.30;;;;;;;9.66;100.00;99381.34;5029117;28;20055;-66
2022/01/16 02:41:31;;;;;;;312.63;97.18;;;;;;;9.62;100.00;99389.97;5046119;28;20060;-66
2022/01/16 02:44:31;;;;;;;311.42;97.60;;;;;;;9.68;100.00;99395.84;5047372;28;20143;-66
2022/01/16 02:47:19;;;;;;;320.63;97.60;;;;;;;9.70;100.00;99401.84;5046995;28;20060;-66
2022/01/16 02:50:28;;;;;;;304.00;94.20;;;;;;;9.71;100.00;99397.53;5041546;28;20056;-66
2022/01/16 02:53:12;;;;;;;320.33;96.18;;;;;;;9.66;100.00;99397.59;5047327;28;20053;-66
2022/01/16 02:56:00;;;;;;;308.90;93.07;;;;;;;9.43;100.00;99417.66;5031152;28;20050;-67
2022/01/16 02:58:42;;;;;;;315.52;97.18;;;;;;;9.52;100.00;99430.38;5038977;28;20059;-66
2022/01/16 03:01:31;;;;;;;335.20;99.30;;;;;;;9.43;100.00;99445.94;5043522;28;20049;-66
2022/01/16 03:04:15;;;;;;;338.38;99.65;;;;;;;9.45;100.00;99444.19;5045997;28;20052;-66
2022/01/16 03:07:09;;;;;;;343.30;101.35;;;;;;;9.51;100.00;99455.25;5044634;28;20064;-66
2022/01/16 03:10:14;;;;;;;335.55;97.70;;;;;;;9.58;100.00;99451.72;5037648;28;20064;-67
2022/01/16 03:13:09;;;;;;;337.42;99.47;;;;;;;9.50;100.00;99453.53;5040915;28;20604;-67
2022/01/16 03:15:44;;;;;;;315.50;97.43;;;;;;;9.51;100.00;99447.53;5042354;28;20052;-66
2022/01/16 03:24:44;;;;;;;318.10;98.07;;;;;;;9.67;100.00;99468.75;5044851;28;20041;-66
2022/01/16 03:27:26;;;;;;;318.83;94.95;;;;;;;9.94;100.00;99470.09;5043721;28;20065;-67
2022/01/16 03:30:15;;;;;;;359.70;104.20;;;;;;;9.95;100.00;99476.94;5044229;28;20045;-67
2022/01/16 03:32:57;;;;;;;322.77;97.47;;;;;;;9.98;100.00;99476.88;5047598;28;20111;-67
2022/01/16 03:35:45;;;;;;;336.35;98.78;;;;;;;9.92;100.00;99479.56;5037225;28;20052;-67
2022/01/16 03:38:27;;;;;;;322.88;96.75;;;;;;;9.84;100.00;99478.81;5054346;28;20059;-67
2022/01/16 03:41:26;;;;;;;334.83;100.13;;;;;;;9.84;100.00;99476.22;5035774;28;20055;-66
2022/01/16 03:44:03;;;;;;;334.88;102.78;;;;;;;10.05;100.00;99478.50;5044494;28;20136;-66
2022/01/16 03:46:58;;;;;;;322.17;99.32;;;;;;;10.21;100.00;99485.16;5032758;28;20475;-66
2022/01/16 03:49:34;;;;;;;344.02;100.95;;;;;;;9.86;100.00;99482.22;5045743;28;20053;-66
2022/01/16 03:52:22;;;;;;;320.60;100.20;;;;;;;9.88;100.00;99476.19;5046703;28;20048;-66
2022/01/16 03:55:07;;;;;;;334.90;99.22;;;;;;;10.05;100.00;99473.38;5046108;28;20063;-66
2022/01/16 03:58:02;;;;;;;330.95;99.07;;;;;;;10.05;100.00;99457.06;5045604;28;20068;-65
2022/01/16 04:00:37;;;;;;;327.67;98.35;;;;;;;9.74;100.00;99459.22;5043758;28;20512;-67
2022/01/16 04:03:26;;;;;;;309.63;97.35;;;;;;;10.01;100.00;99473.41;5035527;28;20168;-66
2022/01/16 04:06:08;;;;;;;317.58;97.20;;;;;;;10.06;100.00;99507.66;5053119;28;20605;-66
2022/01/16 04:09:00;;;;;;;323.08;97.70;;;;;;;10.12;100.00;99521.31;5045917;28;20045;-66
2022/01/16 04:11:51;;;;;;;311.20;99.20;;;;;;;10.25;100.00;99517.69;5028851;28;20598;-67
2022/01/16 04:17:29;;;;;;;302.45;95.63;;;;;;;10.39;100.00;99529.50;5045754;28;20539;-66
2022/01/16 04:20:18;;;;;;;323.95;97.15;;;;;;;10.24;100.00;99528.88;5036293;28;20122;-67
2022/01/16 04:23:00;;;;;;;311.25;97.53;;;;;;;10.19;100.00;99516.94;5044698;28;20056;-67
2022/01/16 04:25:48;;;;;;;314.52;95.68;;;;;;;10.27;100.00;99508.25;5045644;28;20047;-66
2022/01/16 04:28:30;;;;;;;320.73;97.72;;;;;;;10.25;100.00;99516.84;5024227;28;20052;-66
2022/01/16 04:31:18;;;;;;;299.70;98.75;;;;;;;10.25;100.00;99497.09;5044136;28;20460;-67
2022/01/16 04:34:07;;;;;;;319.65;101.53;;;;;;;10.46;100.00;99501.03;5052807;28;20080;-66
2022/01/16 04:36:49;;;;;;;339.17;99.93;;;;;;;10.45;100.00;99524.28;5033935;28;20049;-67
2022/01/16 04:39:50;;;;;;;320.42;96.68;;;;;;;10.61;100.00;99523.16;5033248;28;20056;-68
2022/01/16 04:45:33;;;;;;;307.83;96.32;;;;;;;10.31;100.00;99514.16;5044294;28;20437;-67
2022/01/16 04:48:15;;;;;;;347.98;106.63;;;;;;;10.45;100.00;99519.13;5035546;28;20048;-67
2022/01/16 04:51:10;;;;;;;320.80;99.57;;;;;;;10.51;100.00;99524.19;5043940;28;20361;-67
2022/01/16 04:53:47;;;;;;;345.67;103.00;;;;;;;10.50;100.00;99551.66;5037196;28;20126;-68
2022/01/16 04:56:35;;;;;;;330.83;102.13;;;;;;;10.57;100.00;99557.56;5037709;28;20540;-67
2022/01/16 04:59:18;;;;;;;326.48;99.88;;;;;;;10.52;100.00;99562.78;5028306;28;20056;-67
2022/01/16 05:02:06;;;;;;;339.10;100.50;;;;;;;10.69;100.00;99572.84;5024457;28;20047;-68
2022/01/16 05:04:48;;;;;;;350.27;105.68;;;;;;;10.93;100.00;99569.84;5044120;28;20053;-67
2022/01/16 05:07:37;;;;;;;333.30;101.10;;;;;;;10.84;100.00;99566.56;5049751;28;20079;-67
2022/01/16 05:10:20;;;;;;;358.33;105.90;;;;;;;11.02;100.00;99569.66;5041611;28;20473;-67
2022/01/16 05:19:19;;;;;;;342.63;101.38;;;;;;;10.88;100.00;99602.56;5022395;28;20067;-64
2022/01/16 05:21:59;;;;;;;334.98;102.28;;;;;;;11.08;100.00;99613.41;5017968;28;20156;-65
2022/01/16 05:24:50;;;;;;;338.23;105.38;;;;;;;11.15;100.00;99606.41;5025119;28;20116;-65
2022/01/16 05:27:32;;;;;;;339.98;102.68;;;;;;;11.04;100.00;99598.00;5010556;28;20067;-64
2022/01/16 05:30:21;;;;;;;325.30;101.05;;;;;;;11.04;100.00;99598.84;5018986;28;20053;-65
2022/01/16 05:33:03;;;;;;;321.10;100.07;;;;;;;11.00;100.00;99596.38;5013543;28;20068;-65
2022/01/16 05:35:52;;;;;;;316.38;102.88;;;;;;;11.02;100.00;99579.13;5023021;28;20111;-65
2022/01/16 05:38:35;;;;;;;317.30;99.47;;;;;;;10.89;100.00;99587.97;5028796;28;20482;-65
2022/01/16 05:41:24;;;;;;;347.40;106.13;;;;;;;10.78;100.00;99579.53;5024614;28;20045;-65
2022/01/16 05:44:10;;;;;;;317.85;100.80;;;;;;;10.80;100.00;99573.50;5031817;28;20301;-67
2022/01/16 05:47:05;;;;;;;349.92;107.15;;;;;;;11.10;100.00;99559.22;5006366;28;20691;-68
2022/01/16 05:49:48;;;;;;;333.55;106.60;;;;;;;10.87;100.00;99557.03;5025142;28;20452;-67
2022/01/16 05:52:58;;;;;;;354.95;108.88;;;;;;;11.03;100.00;99558.47;5023074;28;20052;-67
2022/01/16 05:55:40;;;;;;;338.40;105.25;;;;;;;10.86;100.00;99568.22;5007466;28;20129;-67
2022/01/16 05:58:29;;;;;;;359.67;107.20;;;;;;;10.99;100.00;99568.88;5011191;28;20049;-67
2022/01/16 06:01:25;;;;;;;356.90;106.85;;;;;;;11.10;100.00;99552.34;5020307;28;20041;-67
2022/01/16 06:04:21;;;;;;;338.35;105.03;;;;;;;10.94;100.00;99566.38;5009240;28;20312;-68
2022/01/16 06:06:56;;;;;;;329.92;103.15;;;;;;;10.87;100.00;99559.63;5022250;28;20060;-66
2022/01/16 06:09:52;;;;;;;344.90;104.38;;;;;;;10.92;100.00;99565.56;5024325;28;20065;-68
2022/01/16 06:12:27;;;;;;;332.23;103.57;;;;;;;10.92;100.00;99551.84;5046966;28;20071;-66
2022/01/16 06:15:22;;;;;;;358.75;103.60;;;;;;;11.03;100.00;99540.44;5031965;28;20677;-68
2022/01/16 06:18:00;;;;;;;350.92;104.40;;;;;;;11.14;100.00;99532.50;5044346;28;20087;-66
2022/01/16 06:20:48;;;;;;;;;;;;;;;11.36;100.00;99517.47;5043360;28;20068;-68
2022/01/16 06:23:30;;;;;;;338.00;105.45;;;;;;;11.42;100.00;99517.34;5042452;28;19925;-67
2022/01/16 06:26:19;;;;;;;355.00;110.13;;;;;;;11.35;100.00;99531.25;5043782;28;20056;-68
2022/01/16 06:29:01;;;;;;;364.05;111.47;;;;;;;11.68;100.00;99538.31;5044371;28;20049;-69
2022/01/16 06:31:50;;;;;;;363.60;112.10;;;;;;;11.53;100.00;99541.22;5030689;28;20083;-68
2022/01/16 06:34:32;;;;;;;393.67;119.07;;;;;;;11.58;100.00;99546.25;5044645;28;20048;-67
2022/01/16 06:37:27;;;;;;;365.15;116.57;;;;;;;11.72;100.00;99534.81;5033902;28;20080;-69
2022/01/16 06:40:04;;;;;;;372.70;119.88;;;;;;;11.81;100.00;99519.13;5029626;28;20049;-68
2022/01/16 06:42:58;;;;;;;383.48;119.80;;;;;;;11.72;100.00;99516.72;5042495;28;20076;-68
2022/01/16 06:45:38;;;;;;;382.83;114.90;;;;;;;11.92;100.00;99524.06;5009091;28;20037;-67
2022/01/16 06:48:28;;;;;;;362.00;114.25;;;;;;;12.07;100.00;99525.44;5018115;28;20045;-66
2022/01/16 06:51:11;;;;;;;378.63;118.30;;;;;;;12.00;100.00;99513.56;5023705;28;20102;-67
2022/01/16 06:54:01;;;;;;;417.00;132.80;;;;;;;12.16;100.00;99517.50;5041261;28;20073;-66
2022/01/16 06:56:49;;;;;;;445.75;142.50;;;;;;;12.22;100.00;99514.75;5043731;28;20096;-65
2022/01/16 06:59:38;;;;;;;469.65;155.93;;;;;;;11.77;100.00;99514.91;5039179;28;20176;-68
2022/01/16 07:02:33;;;;;;;457.83;150.25;;;;;;;12.13;100.00;99518.41;5045358;28;20075;-64
2022/01/16 07:05:09;;;;;;;469.73;151.52;;;;;;;12.00;100.00;99517.00;5043032;28;20436;-66
2022/01/16 07:07:59;;;;;;;464.50;151.25;;;;;;;12.21;100.00;99510.50;5042956;28;20172;-65
2022/01/16 07:10:48;;;;;;;468.13;146.43;;;;;;;12.23;100.00;99494.06;5035541;28;20111;-67
2022/01/16 07:13:30;;;;;;;429.63;143.60;;;;;;;12.42;100.00;99504.81;5024217;28;20354;-68
2022/01/16 07:16:19;;;;;;;446.15;145.23;;;;;;;12.15;100.00;99510.63;5004504;28;20665;-65
2022/01/16 07:19:02;;;;;;;435.13;142.65;;;;;;;12.12;100.00;99500.38;5019147;28;20385;-66
2022/01/16 07:21:51;;;;;;;461.75;146.63;;;;;;;12.27;100.00;99494.84;5016142;28;20053;-64
2022/01/16 07:24:40;;;;;;;443.63;144.38;;;;;;;12.50;100.00;99497.72;5013815;28;20053;-69
2022/01/16 07:27:22;;;;;;;373.75;122.13;;;;;;;12.67;100.00;99493.88;4997844;28;20053;-70
2022/01/16 07:30:12;;;;;;;341.77;109.43;;;;;;;12.76;100.00;99484.16;5016190;28;20056;-70
2022/01/16 07:32:55;;;;;;;324.13;107.90;;;;;;;12.88;100.00;99473.47;5016058;28;20042;-66
2022/01/16 07:35:45;;;;;;;338.83;106.57;;;;;;;12.88;100.00;99472.63;5016344;28;20646;-65
2022/01/16 07:38:27;;;;;;;310.25;104.95;;;;;;;12.99;100.00;99458.53;4998893;28;20088;-66
2022/01/16 07:41:16;;;;;;;312.08;101.93;;;;;;;12.92;100.00;99448.41;5011439;28;20138;-66
2022/01/16 07:43:58;;;;;;;312.13;103.38;;;;;;;13.05;100.00;99434.22;5000496;28;20041;-72
2022/01/16 07:46:47;;;;;;;322.75;104.25;;;;;;;13.20;100.00;99426.06;5014405;28;20052;-65
2022/01/16 07:49:30;;;;;;;316.05;106.70;;;;;;;13.00;100.00;99407.66;5013902;28;20469;-68
2022/01/16 07:52:25;;;;;;;305.17;100.50;;;;;;;13.14;100.00;99395.19;5021500;28;20064;-67
2022/01/16 07:55:01;;;;;;;312.23;103.85;;;;;;;13.00;100.00;99390.41;5021142;28;20162;-66
2022/01/16 07:57:57;;;;;;;;;;;;;;;12.97;100.00;99405.16;5021520;28;20046;-66
2022/01/16 08:00:38;;;;;;;306.17;101.73;;;;;;;12.67;100.00;99375.81;5009705;28;19924;-65
2022/01/16 08:03:33;;;;;;;289.45;99.97;;;;;;;12.77;100.00;99372.06;5021860;28;20064;-66
2022/01/16 08:06:10;;;;;;;280.60;100.93;;;;;;;12.97;100.00;99368.94;5023378;28;20709;-66
2022/01/16 08:09:05;;;;;;;285.92;99.88;;;;;;;13.16;100.00;99361.53;5022807;28;20052;-68
2022/01/16 08:11:47;;;;;;;287.75;100.00;;;;;;;12.97;100.00;99372.38;5037617;28;20511;-67
2022/01/16 08:14:36;;;;;;;283.50;99.15;;;;;;;12.84;100.00;99359.84;5037779;28;20732;-70
2022/01/16 08:17:18;;;;;;;275.63;99.20;;;;;;;12.75;100.00;99354.94;5012575;28;20056;-66
2022/01/16 08:20:08;;;;;;;274.65;98.25;;;;;;;12.81;100.00;99352.16;5043179;28;20045;-64
2022/01/16 08:22:51;;;;;;;256.05;98.47;;;;;;;12.92;100.00;99350.13;5042465;28;20492;-67
2022/01/16 08:25:41;;;;;;;264.80;97.68;;;;;;;12.86;100.00;99329.59;5041122;28;20052;-68
2022/01/16 08:28:23;;;;;;;253.13;97.55;;;;;;;13.13;100.00;99328.84;5016768;28;20059;-67
2022/01/16 08:31:14;;;;;;;258.30;98.30;;;;;;;12.94;100.00;99315.56;5039905;28;20041;-69
2022/01/16 08:34:03;;;;;;;251.73;100.10;;;;;;;13.16;100.00;99320.13;5038688;28;20071;-70
2022/01/16 08:36:52;;;;;;;272.20;100.38;;;;;;;12.93;100.00;99307.88;5026122;28;20148;-69
2022/01/16 08:39:47;;;;;;;254.48;96.90;;;;;;;12.90;100.00;99292.44;5040012;28;20059;-70
2022/01/16 08:42:23;;;;;;;255.93;99.43;;;;;;;12.97;100.00;99281.00;5044566;28;20045;-68
2022/01/16 08:45:19;;;;;;;262.10;98.07;;;;;;;13.02;100.00;99284.28;5044031;28;20424;-67
2022/01/16 08:47:55;;;;;;;260.35;96.68;;;;;;;12.88;100.00;99279.53;5027956;28;20060;-68
2022/01/16 08:50:44;;;;;;;251.77;96.05;;;;;;;12.97;100.00;99273.25;5035609;28;20053;-67
2022/01/16 08:53:33;;;;;;;258.40;95.55;;;;;;;13.06;100.00;99270.38;5018223;28;20033;-67
2022/01/16 08:56:23;;;;;;;257.55;97.00;;;;;;;13.05;100.00;99276.44;5029884;28;20049;-65
2022/01/16 08:59:12;;;;;;;251.65;96.30;;;;;;;13.26;100.00;99260.28;5025686;28;20200;-67
2022/01/16 09:01:54;;;;;;;277.35;99.40;;;;;;;13.05;100.00;99276.44;5040994;28;20144;-67
2022/01/16 09:04:43;;;;;;;260.27;96.85;;;;;;;13.17;100.00;99267.50;5040700;28;20056;-66
2022/01/16 09:07:26;;;;;;;245.38;96.40;;;;;;;13.15;100.00;99267.56;5043546;28;20057;-68
2022/01/16 09:10:21;;;;;;;246.20;94.78;;;;;;;13.38;100.00;99254.72;5037075;28;20058;-67
2022/01/16 09:13:12;;;;;;;;;;;;;;;13.41;100.00;99246.84;5040344;28;20045;-66
2022/01/16 09:16:00;;;;;;;;;;;;;;;13.34;100.00;99241.94;5044817;28;20463;-66
2022/01/16 09:18:41;;;;;;;;;;;;;;;13.20;100.00;99247.53;4671502;28;9999750;-68
2022/01/16 09:21:36;;;;;;;;;;;;;;;13.13;100.00;99251.22;5033754;28;20007;-69
2022/01/16 09:24:11;;;;;;;;;;;;;;;13.14;100.00;99241.72;5036409;28;19932;-68
2022/01/16 09:27:06;;;;;;;;;;;;;;;13.19;100.00;99237.25;5040608;28;20006;-66
2022/01/16 09:29:41;;;;;;;;;;;;;;;12.99;100.00;99254.22;5038131;28;20017;-67
2022/01/16 09:32:36;;;;;;;;;;;;;;;13.13;100.00;99263.28;5032511;28;20539;-68
2022/01/16 09:35:12;;;;;;;;;;;;;;;13.22;100.00;99257.84;5032442;28;19925;-67
2022/01/16 09:38:07;;;;;;;;;;;;;;;13.20;100.00;99260.47;5039653;28;20336;-69
2022/01/16 09:40:45;;;;;;;;;;;;;;;13.06;100.00;99267.78;5042311;28;19931;-66
2022/01/16 09:43:40;;;;;;;;;;;;;;;13.00;100.00;99275.75;5021818;28;19924;-66
2022/01/16 09:46:16;;;;;;;;;;;;;;;12.99;100.00;99267.16;5040420;28;19925;-67
2022/01/16 09:49:11;;;;;;;;;;;;;;;13.02;100.00;99254.09;5042349;28;20405;-66
2022/01/16 09:51:46;;;;;;;;;;;;;;;13.03;100.00;99257.53;5043440;28;19948;-65
2022/01/16 09:54:42;;;;;;;;;;;;;;;13.09;100.00;99265.09;5042218;28;19964;-66
2022/01/16 09:57:18;;;;;;;;;;;;;;;13.24;100.00;99266.44;5040742;28;20000;-65
2022/01/16 10:00:08;;;;;;;;;;;;;;;13.02;100.00;99264.44;5043702;28;20478;-65
2022/01/16 10:02:50;;;;;;;;;;;;;;;12.95;100.00;99268.13;5044025;28;19931;-64
2022/01/16 10:05:34;;;;;;;;;;;;;;;12.91;100.00;99266.53;5041282;28;20326;-64
2022/01/16 10:08:26;;;;;;;;;;;;;;;12.94;100.00;99276.75;5038401;28;19925;-64
2022/01/16 10:11:28;;;;;;;;;;;;;;;12.89;100.00;99265.72;5029244;28;19924;-65
2022/01/16 10:14:22;;;;;;;;;;;;;;;12.91;100.00;99269.13;5019109;28;20025;-67
2022/01/16 10:17:16;;;;;;;;;;;;;;;12.78;100.00;99257.41;5019216;28;19933;-65
2022/01/16 10:19:58;;;;;;;;;;;;;;;12.91;100.00;99260.50;5020058;28;20039;-65
2022/01/16 10:22:47;;;;;;;;;;;;;;;12.89;100.00;99277.81;5020200;28;19935;-65
2022/01/16 10:25:52;;;;;;;;;;;;;;;12.68;100.00;99288.78;5022778;28;19925;-68
2022/01/16 10:28:41;;;;;;;;;;;;;;;12.67;100.00;99279.31;5022681;28;19929;-68
2022/01/16 10:31:27;;;;;;;;;;;;;;;12.72;100.00;99275.72;5015855;28;20008;-67
2022/01/16 10:34:31;;;;;;;;;;;;;;;12.58;100.00;99290.78;4993145;28;20256;-68
2022/01/16 10:37:21;;;;;;;;;;;;;;;12.46;100.00;99288.50;5005560;28;20427;-70
2022/01/16 10:40:17;;;;;;;;;;;;;;;12.37;100.00;99284.44;5018623;28;19939;-67
2022/01/16 10:43:05;;;;;;;;;;;;;;;12.42;100.00;99286.94;5017477;28;20364;-68
2022/01/16 10:45:56;;;;;;;;;;;;;;;12.41;100.00;99296.41;5013943;28;20615;-71
2022/01/16 10:49:14;;;;;;;;;;;;;;;12.24;100.00;99302.03;5015536;28;20275;-71
2022/01/16 10:52:02;;;;;;;;;;;;;;;12.43;100.00;99309.28;5000799;28;19998;-69
2022/01/16 10:54:44;;;;;;;;;;;;;;;12.36;100.00;99307.78;5019984;28;19994;-70
2022/01/16 10:57:33;;;;;;;;;;;;;;;12.26;100.00;99296.84;5031699;28;19925;-70
2022/01/16 11:00:20;;;;;;;;;;;;;;;12.34;100.00;99283.69;5022668;28;20169;-69
2022/01/16 11:03:10;;;;;;;;;;;;;;;12.42;100.00;99286.94;5024582;28;19929;-70
2022/01/16 11:05:51;;;;;;;;;;;;;;;12.30;100.00;99290.69;5019729;28;19979;-68
2022/01/16 11:08:40;;;;;;;;;;;;;;;12.27;100.00;99291.63;5014495;28;19959;-69
2022/01/16 11:11:35;;;;;;;;;;;;;;;12.15;100.00;99283.34;5032393;28;19924;-69
2022/01/16 11:14:24;;;;;;;;;;;;;;;12.04;100.00;99280.22;4691462;28;10000522;-71
2022/01/16 11:17:05;;;;;;;;;;;;;;;11.91;100.00;99281.41;5041573;28;19925;-68
2022/01/16 11:19:55;;;;;;;;;;;;;;;11.92;100.00;99252.97;5041901;28;19967;-68
2022/01/16 11:22:58;;;;;;;;;;;;;;;12.19;100.00;99254.81;5041154;28;19930;-67
2022/01/16 11:25:41;;;;;;;;;;;;;;;12.16;100.00;99261.78;5041021;28;20233;-67
2022/01/16 11:28:29;;;;;;;;;;;;;;;11.96;100.00;99256.31;5043463;28;20031;-68
2022/01/16 11:31:12;;;;;;;;;;;;;;;11.92;100.00;99249.53;5043446;28;20050;-67
2022/01/16 11:34:00;;;;;;;;;;;;;;;11.90;100.00;99254.72;5045866;28;19924;-65
2022/01/16 11:36:42;;;;;;;;;;;;;;;12.02;100.00;99267.34;5040994;28;19928;-66
2022/01/16 11:39:39;;;;;;;;;;;;;;;11.84;100.00;99284.16;5041579;28;20618;-66
2022/01/16 11:42:27;;;;;;;;;;;;;;;11.97;100.00;99274.38;5028914;28;19955;-65
2022/01/16 11:45:16;;;;;;;;;;;;;;;11.84;100.00;99270.38;5043047;28;20040;-67
2022/01/16 11:47:58;;;;;;;;;;;;;;;11.81;100.00;99273.88;5037638;28;19932;-66
2022/01/16 11:50:47;;;;;;;;;;;;;;;11.71;100.00;99272.41;5043346;28;19940;-64
2022/01/16 11:53:46;;;;;;;;;;;;;;;11.68;100.00;99258.72;5046149;28;19952;-66
2022/01/16 11:56:44;;;;;;;;;;;;;;;11.69;100.00;99263.84;5042792;28;19924;-64
2022/01/16 11:59:35;;;;;;;;;;;;;;;11.73;100.00;99270.63;5040897;28;19960;-66
2022/01/16 12:02:24;;;;;;;;;;;;;;;11.57;100.00;99295.13;5038221;28;19925;-65
2022/01/16 12:05:30;;;;;;;;;;;;;;;11.63;100.00;99310.47;5036270;28;20053;-65
2022/01/16 12:08:11;;;;;;;;;;;;;;;11.58;100.00;99299.38;5037622;28;19925;-65
2022/01/16 12:11:06;;;;;;;;;;;;;;;11.47;100.00;99299.66;5038602;28;19932;-66
2022/01/16 12:13:54;;;;;;;;;;;;;;;11.64;100.00;99314.75;5037854;28;19930;-64
2022/01/16 12:16:45;;;;;;;;;;;;;;;11.50;100.00;99324.53;5042502;28;19944;-65
2022/01/16 12:19:41;;;;;;;;;;;;;;;11.53;100.00;99327.03;5032636;28;19968;-65
2022/01/16 12:22:48;;;;;;;;;;;;;;;11.57;100.00;99330.41;5041629;28;19924;-66
2022/01/16 12:25:54;;;;;;;;;;;;;;;11.52;100.00;99308.13;5032765;28;19928;-65
2022/01/16 12:28:49;;;;;;;;;;;;;;;11.45;100.00;99291.09;5018856;28;19944;-65
2022/01/16 12:31:34;;;;;;;;;;;;;;;11.39;100.00;99300.72;5040186;28;19939;-66
2022/01/16 12:34:43;;;;;;;;;;;;;;;11.38;100.00;99302.47;5041511;28;20631;-66
2022/01/16 12:37:48;;;;;;;;;;;;;;;11.45;100.00;99287.69;5035222;28;19936;-67
2022/01/16 12:40:23;;;;;;;;;;;;;;;11.42;100.00;99286.00;5036953;28;19931;-65
2022/01/16 12:43:17;;;;;;;;;;;;;;;11.40;100.00;99310.16;5032880;28;19924;-68
2022/01/16 12:46:08;;;;;;;;;;;;;;;11.31;100.00;99324.13;5041664;28;19929;-67
2022/01/16 12:49:04;;;;;;;;;;;;;;;11.25;100.00;99319.09;5042735;28;19931;-69
2022/01/16 12:51:42;;;;;;;;;;;;;;;11.38;100.00;99320.50;5040975;28;19982;-73
2022/01/16 12:54:31;;;;;;;;;;;;;;;11.41;100.00;99332.50;5044393;28;19924;-70
2022/01/16 12:57:12;;;;;;;;;;;;;;;11.36;100.00;99332.59;5037717;28;19994;-69
2022/01/16 13:00:14;;;;;;;;;;;;;;;11.23;100.00;99335.50;5040734;28;19930;-72
2022/01/16 13:02:53;;;;;;;;;;;;;;;11.25;100.00;99344.03;5043301;28;20386;-69
2022/01/16 13:05:48;;;;;;;;;;;;;;;11.23;100.00;99340.66;5041801;28;19932;-68
2022/01/16 13:08:23;;;;;;;;;;;;;;;11.34;100.00;99360.13;5038264;28;19924;-68
2022/01/16 13:11:21;;;;;;;;;;;;;;;11.31;100.00;99365.38;5036980;28;19986;-67
2022/01/16 13:14:05;;;;;;;;;;;;;;;11.16;100.00;99355.41;5038589;28;20059;-68
2022/01/16 13:16:54;;;;;;;;;;;;;;;11.11;100.00;99363.22;5042285;28;19928;-68
2022/01/16 13:19:53;;;;;;;;;;;;;;;11.23;100.00;99375.03;5042468;28;19925;-68
2022/01/16 13:22:49;;;;;;;;;;;;;;;11.06;100.00;99380.53;5044935;28;19924;-69
2022/01/16 13:25:24;;;;;;;;;;;;;;;11.12;100.00;99384.69;5044158;28;19933;-68
2022/01/16 13:28:18;;;;;;;;;;;;;;;11.05;100.00;99386.56;5046250;28;19971;-68
2022/01/16 13:30:53;;;;;;;;;;;;;;;11.11;100.00;99398.47;5041914;28;20057;-68
2022/01/16 13:33:49;;;;;;;;;;;;;;;11.11;100.00;99399.31;5044782;28;20383;-69
2022/01/16 13:36:24;;;;;;;;;;;;;;;11.04;100.00;99412.38;5045178;28;19939;-69
2022/01/16 13:39:18;;;;;;;;;;;;;;;11.07;100.00;99412.31;5044133;28;20459;-68
2022/01/16 13:42:12;;;;;;;;;;;;;;;11.36;100.00;99403.97;5045429;28;19935;-68
2022/01/16 13:45:20;;;;;;;;;;;;;;;11.19;100.00;99393.16;5028651;28;19925;-67
2022/01/16 13:48:10;;;;;;;;;;;;;;;11.13;100.00;99378.66;5030518;28;20347;-69
2022/01/16 13:50:53;;;;;;;;;;;;;;;11.01;100.00;99384.94;5030675;28;20020;-68
2022/01/16 13:53:44;;;;;;;;;;;;;;;10.97;100.00;99385.88;5047630;28;19925;-70
2022/01/16 13:56:28;;;;;;;;;;;;;;;10.91;100.00;99396.31;5045749;28;19947;-69
2022/01/16 13:59:17;;;;;;;;;;;;;;;11.27;100.00;99404.16;5046735;28;19931;-67